ニアメ の空港の天気 - METARとTAF

ニアメ/ディオリ・アマニ国際空港 ( DRRN / NIM ) - ニジェール ニアメ
飛行場実況気象(Metar)
観測時間07/17 10:00 WAT (07/17 09:00 UTC)
風向・風速南西 4m/s
視程10km以上
天気現象
全天の8割程度の雲 雲底高度 610m
気温29℃
湿度66%
気圧1014hPa
METARDRRN 170900Z 22008KT 190V270 9999 BKN020 29/22 Q1014 NOSIG
過去の天気等 Google飛行場航空写真 Wunderground天気予報

過去48時間のMETAR

飛行場予報(TAF)
発表時間: 7/17 06:00 WAT (7/17 05:00 UTC)
予報対象時間: 17日7時 WAT ~ 18日13時 WAT
風向・風速南西 5m/s
視程10km以上
少しの雲 雲底高度 610m
17日14時 WAT ~ 17日21時 WAT に 確率 40% で一時的に
風向・風速東 10m/s 瞬間風速 18m/s
視程1500m
天気現象スコール 高い風塵 雷雨
全天の8割程度の雲 雲底高度 460m
全天の4割程度の積乱雲 雲底高度 610m
TAF COR DRRN 170500Z 1706/1812 22010KT 9999 FEW020
PROB40 TEMPO 1713/1720 08020G35KT 1500 SQ BLDU TSRA BKN015 SCT020CB